sensor_id;sensor_type;location;lat;lon;timestamp;temperature;humidity
53802;DHT22;39709;53.334;6.534;2023-02-12T00:00:32;5.60;99.90
53802;DHT22;39709;53.334;6.534;2023-02-12T00:02:58;6.10;99.90
53802;DHT22;39709;53.334;6.534;2023-02-12T00:05:24;6.10;99.90
53802;DHT22;39709;53.334;6.534;2023-02-12T00:07:50;6.20;99.90
53802;DHT22;39709;53.334;6.534;2023-02-12T00:10:16;6.40;99.90
53802;DHT22;39709;53.334;6.534;2023-02-12T00:12:42;6.30;99.90
53802;DHT22;39709;53.334;6.534;2023-02-12T00:15:07;6.00;99.90
53802;DHT22;39709;53.334;6.534;2023-02-12T00:17:33;6.20;99.90
53802;DHT22;39709;53.334;6.534;2023-02-12T00:19:59;6.40;99.90
53802;DHT22;39709;53.334;6.534;2023-02-12T00:22:25;5.70;99.90
53802;DHT22;39709;53.334;6.534;2023-02-12T00:24:50;6.00;99.90
53802;DHT22;39709;53.334;6.534;2023-02-12T00:27:16;5.90;99.90
53802;DHT22;39709;53.334;6.534;2023-02-12T00:29:41;5.80;99.90
53802;DHT22;39709;53.334;6.534;2023-02-12T00:32:07;6.20;99.90
53802;DHT22;39709;53.334;6.534;2023-02-12T00:34:33;6.00;99.90
53802;DHT22;39709;53.334;6.534;2023-02-12T00:36:59;6.00;99.90
53802;DHT22;39709;53.334;6.534;2023-02-12T00:39:24;5.60;99.90
53802;DHT22;39709;53.334;6.534;2023-02-12T00:41:50;6.00;99.90
53802;DHT22;39709;53.334;6.534;2023-02-12T00:44:16;6.10;99.90
53802;DHT22;39709;53.334;6.534;2023-02-12T00:46:41;5.60;99.90
53802;DHT22;39709;53.334;6.534;2023-02-12T00:49:07;5.80;99.90
53802;DHT22;39709;53.334;6.534;2023-02-12T00:51:33;6.10;99.90
53802;DHT22;39709;53.334;6.534;2023-02-12T00:53:58;5.90;99.90
53802;DHT22;39709;53.334;6.534;2023-02-12T00:56:24;5.90;99.90
53802;DHT22;39709;53.334;6.534;2023-02-12T00:58:50;5.70;99.90
53802;DHT22;39709;53.334;6.534;2023-02-12T01:01:16;5.90;99.90
53802;DHT22;39709;53.334;6.534;2023-02-12T01:03:42;6.00;99.90
53802;DHT22;39709;53.334;6.534;2023-02-12T01:06:08;6.00;99.90
53802;DHT22;39709;53.334;6.534;2023-02-12T01:08:33;5.60;99.90
53802;DHT22;39709;53.334;6.534;2023-02-12T01:11:02;5.80;99.90
53802;DHT22;39709;53.334;6.534;2023-02-12T01:13:29;6.00;99.90
53802;DHT22;39709;53.334;6.534;2023-02-12T01:16:21;6.20;99.90
53802;DHT22;39709;53.334;6.534;2023-02-12T01:18:48;5.90;99.90
53802;DHT22;39709;53.334;6.534;2023-02-12T01:21:23;6.10;99.90
53802;DHT22;39709;53.334;6.534;2023-02-12T01:23:49;6.10;99.90
53802;DHT22;39709;53.334;6.534;2023-02-12T01:26:17;5.50;99.90
53802;DHT22;39709;53.334;6.534;2023-02-12T01:28:47;6.10;99.90
53802;DHT22;39709;53.334;6.534;2023-02-12T01:31:19;5.70;99.90
53802;DHT22;39709;53.334;6.534;2023-02-12T01:33:49;5.50;99.90
53802;DHT22;39709;53.334;6.534;2023-02-12T01:36:15;5.80;99.90
53802;DHT22;39709;53.334;6.534;2023-02-12T01:38:41;5.80;99.90
53802;DHT22;39709;53.334;6.534;2023-02-12T01:41:11;5.30;99.90
53802;DHT22;39709;53.334;6.534;2023-02-12T01:43:37;5.40;99.90
53802;DHT22;39709;53.334;6.534;2023-02-12T01:46:03;5.20;99.90
53802;DHT22;39709;53.334;6.534;2023-02-12T01:48:39;5.50;99.90
53802;DHT22;39709;53.334;6.534;2023-02-12T01:51:08;5.20;99.90
53802;DHT22;39709;53.334;6.534;2023-02-12T01:53:40;5.50;99.90
53802;DHT22;39709;53.334;6.534;2023-02-12T01:56:08;5.50;99.90
53802;DHT22;39709;53.334;6.534;2023-02-12T01:58:37;5.30;99.90
53802;DHT22;39709;53.334;6.534;2023-02-12T02:01:06;5.80;99.90
53802;DHT22;39709;53.334;6.534;2023-02-12T02:03:35;5.90;99.90
53802;DHT22;39709;53.334;6.534;2023-02-12T02:06:14;5.30;99.90
53802;DHT22;39709;53.334;6.534;2023-02-12T02:08:41;5.50;99.90
53802;DHT22;39709;53.334;6.534;2023-02-12T02:11:07;5.80;99.90
53802;DHT22;39709;53.334;6.534;2023-02-12T02:13:52;6.10;99.90
53802;DHT22;39709;53.334;6.534;2023-02-12T02:16:38;5.80;99.90
53802;DHT22;39709;53.334;6.534;2023-02-12T02:22:08;6.20;99.90
53802;DHT22;39709;53.334;6.534;2023-02-12T02:24:51;5.90;99.90
53802;DHT22;39709;53.334;6.534;2023-02-12T02:27:29;5.30;99.90
53802;DHT22;39709;53.334;6.534;2023-02-12T02:35:14;6.10;99.90
53802;DHT22;39709;53.334;6.534;2023-02-12T02:37:48;5.70;99.90
53802;DHT22;39709;53.334;6.534;2023-02-12T02:40:39;6.20;99.90
53802;DHT22;39709;53.334;6.534;2023-02-12T02:43:33;6.10;99.90
53802;DHT22;39709;53.334;6.534;2023-02-12T02:46:29;5.90;99.90
53802;DHT22;39709;53.334;6.534;2023-02-12T02:49:01;5.60;99.90
53802;DHT22;39709;53.334;6.534;2023-02-12T02:51:35;5.30;99.90
53802;DHT22;39709;53.334;6.534;2023-02-12T02:56:32;5.80;99.90
53802;DHT22;39709;53.334;6.534;2023-02-12T02:59:06;5.40;99.90
53802;DHT22;39709;53.334;6.534;2023-02-12T03:04:40;5.60;99.90
53802;DHT22;39709;53.334;6.534;2023-02-12T03:07:16;5.90;99.90
53802;DHT22;39709;53.334;6.534;2023-02-12T03:10:00;5.00;99.90
53802;DHT22;39709;53.334;6.534;2023-02-12T03:12:46;5.60;99.90
53802;DHT22;39709;53.334;6.534;2023-02-12T03:17:47;6.20;99.90
53802;DHT22;39709;53.334;6.534;2023-02-12T03:20:34;6.40;99.90
53802;DHT22;39709;53.334;6.534;2023-02-12T03:23:09;5.70;99.90
53802;DHT22;39709;53.334;6.534;2023-02-12T03:26:03;6.30;99.90
53802;DHT22;39709;53.334;6.534;2023-02-12T03:28:32;5.20;99.90
53802;DHT22;39709;53.334;6.534;2023-02-12T03:31:26;5.00;99.90
53802;DHT22;39709;53.334;6.534;2023-02-12T03:39:04;5.80;99.90
53802;DHT22;39709;53.334;6.534;2023-02-12T03:42:05;5.40;99.90
53802;DHT22;39709;53.334;6.534;2023-02-12T03:50:10;4.70;99.90
53802;DHT22;39709;53.334;6.534;2023-02-12T03:52:33;5.30;99.90
53802;DHT22;39709;53.334;6.534;2023-02-12T03:54:59;5.90;99.90
53802;DHT22;39709;53.334;6.534;2023-02-12T03:57:29;4.90;99.90
53802;DHT22;39709;53.334;6.534;2023-02-12T04:00:02;4.80;99.90
53802;DHT22;39709;53.334;6.534;2023-02-12T04:02:28;5.80;99.90
53802;DHT22;39709;53.334;6.534;2023-02-12T04:04:54;5.90;99.90
53802;DHT22;39709;53.334;6.534;2023-02-12T04:07:20;6.00;99.90
53802;DHT22;39709;53.334;6.534;2023-02-12T04:09:46;5.20;99.90
53802;DHT22;39709;53.334;6.534;2023-02-12T04:15:59;5.80;99.90
53802;DHT22;39709;53.334;6.534;2023-02-12T04:26:14;5.80;99.90
53802;DHT22;39709;53.334;6.534;2023-02-12T04:31:56;5.10;99.90
53802;DHT22;39709;53.334;6.534;2023-02-12T04:34:37;5.70;99.90
53802;DHT22;39709;53.334;6.534;2023-02-12T04:37:11;5.50;99.90
53802;DHT22;39709;53.334;6.534;2023-02-12T04:39:40;5.70;99.90
53802;DHT22;39709;53.334;6.534;2023-02-12T04:42:07;5.80;99.90
53802;DHT22;39709;53.334;6.534;2023-02-12T04:44:36;5.70;99.90
53802;DHT22;39709;53.334;6.534;2023-02-12T04:47:02;5.60;99.90
53802;DHT22;39709;53.334;6.534;2023-02-12T04:49:28;5.70;99.90
53802;DHT22;39709;53.334;6.534;2023-02-12T04:51:54;4.90;99.90
53802;DHT22;39709;53.334;6.534;2023-02-12T04:54:20;4.70;99.90
53802;DHT22;39709;53.334;6.534;2023-02-12T04:56:47;5.80;99.90
53802;DHT22;39709;53.334;6.534;2023-02-12T04:59:13;5.50;99.90
53802;DHT22;39709;53.334;6.534;2023-02-12T05:01:39;4.90;99.90
53802;DHT22;39709;53.334;6.534;2023-02-12T05:04:07;4.90;99.90
53802;DHT22;39709;53.334;6.534;2023-02-12T05:06:37;5.90;99.90
53802;DHT22;39709;53.334;6.534;2023-02-12T05:09:04;5.60;99.90
53802;DHT22;39709;53.334;6.534;2023-02-12T05:11:30;5.90;99.90
53802;DHT22;39709;53.334;6.534;2023-02-12T05:13:57;5.60;99.90
53802;DHT22;39709;53.334;6.534;2023-02-12T05:16:23;5.50;99.90
53802;DHT22;39709;53.334;6.534;2023-02-12T05:18:49;4.70;99.90
53802;DHT22;39709;53.334;6.534;2023-02-12T05:21:14;5.50;99.90
53802;DHT22;39709;53.334;6.534;2023-02-12T05:23:41;5.80;99.90
53802;DHT22;39709;53.334;6.534;2023-02-12T05:26:13;4.80;99.90
53802;DHT22;39709;53.334;6.534;2023-02-12T05:28:39;5.90;99.90
53802;DHT22;39709;53.334;6.534;2023-02-12T05:31:07;4.70;99.90
53802;DHT22;39709;53.334;6.534;2023-02-12T05:33:33;5.80;99.90
53802;DHT22;39709;53.334;6.534;2023-02-12T05:36:06;5.30;99.90
53802;DHT22;39709;53.334;6.534;2023-02-12T05:38:33;5.70;99.90
53802;DHT22;39709;53.334;6.534;2023-02-12T05:41:04;5.20;99.90
53802;DHT22;39709;53.334;6.534;2023-02-12T05:43:30;5.80;99.90
53802;DHT22;39709;53.334;6.534;2023-02-12T05:46:00;4.70;99.90
53802;DHT22;39709;53.334;6.534;2023-02-12T05:48:27;4.80;99.90
53802;DHT22;39709;53.334;6.534;2023-02-12T05:50:53;5.70;99.90
53802;DHT22;39709;53.334;6.534;2023-02-12T05:53:19;5.40;99.90
53802;DHT22;39709;53.334;6.534;2023-02-12T05:55:45;4.70;99.90
53802;DHT22;39709;53.334;6.534;2023-02-12T05:58:10;5.10;99.90
53802;DHT22;39709;53.334;6.534;2023-02-12T06:00:36;4.60;99.90
53802;DHT22;39709;53.334;6.534;2023-02-12T06:03:02;5.20;99.90
53802;DHT22;39709;53.334;6.534;2023-02-12T06:05:28;4.50;99.90
53802;DHT22;39709;53.334;6.534;2023-02-12T06:07:53;5.10;99.90
53802;DHT22;39709;53.334;6.534;2023-02-12T06:10:19;5.50;99.90
53802;DHT22;39709;53.334;6.534;2023-02-12T06:12:45;4.50;99.90
53802;DHT22;39709;53.334;6.534;2023-02-12T06:15:10;5.50;99.90
53802;DHT22;39709;53.334;6.534;2023-02-12T06:17:36;5.20;99.90
53802;DHT22;39709;53.334;6.534;2023-02-12T06:20:02;4.30;99.90
53802;DHT22;39709;53.334;6.534;2023-02-12T06:22:28;5.30;99.90
53802;DHT22;39709;53.334;6.534;2023-02-12T06:24:53;5.40;99.90
53802;DHT22;39709;53.334;6.534;2023-02-12T06:27:19;5.20;99.90
53802;DHT22;39709;53.334;6.534;2023-02-12T06:29:45;4.30;99.90
53802;DHT22;39709;53.334;6.534;2023-02-12T06:32:10;5.30;99.90
53802;DHT22;39709;53.334;6.534;2023-02-12T06:34:38;5.60;99.90
53802;DHT22;39709;53.334;6.534;2023-02-12T06:37:04;5.50;99.90
53802;DHT22;39709;53.334;6.534;2023-02-12T06:39:30;4.50;99.90
53802;DHT22;39709;53.334;6.534;2023-02-12T06:41:56;5.40;99.90
53802;DHT22;39709;53.334;6.534;2023-02-12T06:44:21;5.40;99.90
53802;DHT22;39709;53.334;6.534;2023-02-12T06:46:47;4.40;99.90
53802;DHT22;39709;53.334;6.534;2023-02-12T06:49:13;5.20;99.90
53802;DHT22;39709;53.334;6.534;2023-02-12T06:51:39;5.50;99.90
53802;DHT22;39709;53.334;6.534;2023-02-12T06:54:15;5.30;99.90
53802;DHT22;39709;53.334;6.534;2023-02-12T06:56:41;4.60;99.90
53802;DHT22;39709;53.334;6.534;2023-02-12T06:59:14;5.40;99.90
53802;DHT22;39709;53.334;6.534;2023-02-12T07:01:40;4.80;99.90
53802;DHT22;39709;53.334;6.534;2023-02-12T07:04:05;5.40;99.90
53802;DHT22;39709;53.334;6.534;2023-02-12T07:06:34;5.30;99.90
53802;DHT22;39709;53.334;6.534;2023-02-12T07:09:00;4.40;99.90
53802;DHT22;39709;53.334;6.534;2023-02-12T07:11:32;4.50;99.90
53802;DHT22;39709;53.334;6.534;2023-02-12T07:13:58;4.50;99.90
53802;DHT22;39709;53.334;6.534;2023-02-12T07:16:24;5.50;99.90
53802;DHT22;39709;53.334;6.534;2023-02-12T07:18:50;5.10;99.90
53802;DHT22;39709;53.334;6.534;2023-02-12T07:21:16;5.50;99.90
53802;DHT22;39709;53.334;6.534;2023-02-12T07:23:49;4.30;99.90
53802;DHT22;39709;53.334;6.534;2023-02-12T07:26:15;4.40;99.90
53802;DHT22;39709;53.334;6.534;2023-02-12T07:28:41;5.50;99.90
53802;DHT22;39709;53.334;6.534;2023-02-12T07:31:09;4.50;99.90
53802;DHT22;39709;53.334;6.534;2023-02-12T07:33:36;4.40;99.90
53802;DHT22;39709;53.334;6.534;2023-02-12T07:36:03;4.30;99.90
53802;DHT22;39709;53.334;6.534;2023-02-12T07:38:29;5.50;99.90
53802;DHT22;39709;53.334;6.534;2023-02-12T07:40:55;4.30;99.90
53802;DHT22;39709;53.334;6.534;2023-02-12T07:43:29;5.60;99.90
53802;DHT22;39709;53.334;6.534;2023-02-12T07:45:55;5.70;99.90
53802;DHT22;39709;53.334;6.534;2023-02-12T07:48:21;4.50;99.90
53802;DHT22;39709;53.334;6.534;2023-02-12T07:50:46;5.50;99.90
53802;DHT22;39709;53.334;6.534;2023-02-12T07:53:12;5.10;99.90
53802;DHT22;39709;53.334;6.534;2023-02-12T07:55:38;5.70;99.90
53802;DHT22;39709;53.334;6.534;2023-02-12T07:58:04;5.70;99.90
53802;DHT22;39709;53.334;6.534;2023-02-12T08:00:29;4.50;99.90
53802;DHT22;39709;53.334;6.534;2023-02-12T08:02:55;5.70;99.90
53802;DHT22;39709;53.334;6.534;2023-02-12T08:05:20;5.70;99.90
53802;DHT22;39709;53.334;6.534;2023-02-12T08:07:46;4.60;99.90
53802;DHT22;39709;53.334;6.534;2023-02-12T08:10:12;4.60;99.90
53802;DHT22;39709;53.334;6.534;2023-02-12T08:12:37;5.80;99.90
53802;DHT22;39709;53.334;6.534;2023-02-12T08:15:03;4.50;99.90
53802;DHT22;39709;53.334;6.534;2023-02-12T08:17:29;5.50;99.90
53802;DHT22;39709;53.334;6.534;2023-02-12T08:19:55;4.90;99.90
53802;DHT22;39709;53.334;6.534;2023-02-12T08:22:20;5.10;99.90
53802;DHT22;39709;53.334;6.534;2023-02-12T08:24:46;6.00;99.90
53802;DHT22;39709;53.334;6.534;2023-02-12T08:27:12;5.90;99.90
53802;DHT22;39709;53.334;6.534;2023-02-12T08:29:37;4.50;99.90
53802;DHT22;39709;53.334;6.534;2023-02-12T08:32:03;4.90;99.90
53802;DHT22;39709;53.334;6.534;2023-02-12T08:34:33;5.90;99.90
53802;DHT22;39709;53.334;6.534;2023-02-12T08:37:00;4.60;99.90
53802;DHT22;39709;53.334;6.534;2023-02-12T08:39:27;4.60;99.90
53802;DHT22;39709;53.334;6.534;2023-02-12T08:41:54;6.00;99.90
53802;DHT22;39709;53.334;6.534;2023-02-12T08:44:20;4.90;99.90
53802;DHT22;39709;53.334;6.534;2023-02-12T08:46:48;4.70;99.90
53802;DHT22;39709;53.334;6.534;2023-02-12T08:49:17;6.00;99.90
53802;DHT22;39709;53.334;6.534;2023-02-12T08:51:46;4.90;99.90
53802;DHT22;39709;53.334;6.534;2023-02-12T08:54:15;4.80;99.90
53802;DHT22;39709;53.334;6.534;2023-02-12T08:56:41;6.10;99.90
53802;DHT22;39709;53.334;6.534;2023-02-12T08:59:10;5.90;99.90
53802;DHT22;39709;53.334;6.534;2023-02-12T09:01:37;5.10;99.90
53802;DHT22;39709;53.334;6.534;2023-02-12T09:04:04;5.10;99.90
53802;DHT22;39709;53.334;6.534;2023-02-12T09:06:32;6.30;99.90
53802;DHT22;39709;53.334;6.534;2023-02-12T09:08:58;5.00;99.90
53802;DHT22;39709;53.334;6.534;2023-02-12T09:11:26;5.50;99.90
53802;DHT22;39709;53.334;6.534;2023-02-12T09:14:00;6.40;99.90
53802;DHT22;39709;53.334;6.534;2023-02-12T09:16:27;5.70;99.90
53802;DHT22;39709;53.334;6.534;2023-02-12T09:18:53;6.50;99.90
53802;DHT22;39709;53.334;6.534;2023-02-12T09:21:20;5.30;99.90
53802;DHT22;39709;53.334;6.534;2023-02-12T09:23:46;5.30;99.90
53802;DHT22;39709;53.334;6.534;2023-02-12T09:26:15;5.20;99.90
53802;DHT22;39709;53.334;6.534;2023-02-12T09:28:41;6.10;99.90
53802;DHT22;39709;53.334;6.534;2023-02-12T09:31:16;6.50;99.90
53802;DHT22;39709;53.334;6.534;2023-02-12T09:33:42;5.90;99.90
53802;DHT22;39709;53.334;6.534;2023-02-12T09:36:11;6.70;99.90
53802;DHT22;39709;53.334;6.534;2023-02-12T09:38:38;6.50;99.90
53802;DHT22;39709;53.334;6.534;2023-02-12T09:46:34;6.50;99.90
53802;DHT22;39709;53.334;6.534;2023-02-12T09:51:51;7.10;99.90
53802;DHT22;39709;53.334;6.534;2023-02-12T09:54:22;5.90;99.90
53802;DHT22;39709;53.334;6.534;2023-02-12T09:56:57;5.90;99.90
53802;DHT22;39709;53.334;6.534;2023-02-12T09:59:33;7.40;99.90
53802;DHT22;39709;53.334;6.534;2023-02-12T10:02:00;6.90;99.90
53802;DHT22;39709;53.334;6.534;2023-02-12T10:04:27;7.30;99.90
53802;DHT22;39709;53.334;6.534;2023-02-12T10:20:30;6.50;99.90
53802;DHT22;39709;53.334;6.534;2023-02-12T10:28:27;7.60;99.90
53802;DHT22;39709;53.334;6.534;2023-02-12T10:31:01;6.70;99.90
53802;DHT22;39709;53.334;6.534;2023-02-12T10:36:05;7.60;99.90
53802;DHT22;39709;53.334;6.534;2023-02-12T10:38:39;6.80;99.90
53802;DHT22;39709;53.334;6.534;2023-02-12T10:41:09;7.20;99.90
53802;DHT22;39709;53.334;6.534;2023-02-12T10:43:35;6.80;99.90
53802;DHT22;39709;53.334;6.534;2023-02-12T10:46:01;7.60;99.90
53802;DHT22;39709;53.334;6.534;2023-02-12T10:48:37;7.10;99.90
53802;DHT22;39709;53.334;6.534;2023-02-12T10:53:41;7.60;99.90
53802;DHT22;39709;53.334;6.534;2023-02-12T10:56:19;7.00;99.90
53802;DHT22;39709;53.334;6.534;2023-02-12T10:58:50;7.00;99.90
53802;DHT22;39709;53.334;6.534;2023-02-12T11:03:55;7.60;99.90
53802;DHT22;39709;53.334;6.534;2023-02-12T11:06:27;7.10;99.90
53802;DHT22;39709;53.334;6.534;2023-02-12T11:08:55;7.70;99.90
53802;DHT22;39709;53.334;6.534;2023-02-12T11:11:36;7.90;99.90
53802;DHT22;39709;53.334;6.534;2023-02-12T11:14:05;8.00;99.90
53802;DHT22;39709;53.334;6.534;2023-02-12T11:16:45;8.00;99.90
53802;DHT22;39709;53.334;6.534;2023-02-12T11:19:22;8.10;99.90
53802;DHT22;39709;53.334;6.534;2023-02-12T11:21:49;7.90;99.90
53802;DHT22;39709;53.334;6.534;2023-02-12T11:26:50;8.00;99.90
53802;DHT22;39709;53.334;6.534;2023-02-12T11:29:19;7.80;99.90
53802;DHT22;39709;53.334;6.534;2023-02-12T11:32:00;8.20;99.90
53802;DHT22;39709;53.334;6.534;2023-02-12T11:34:26;8.20;99.90
53802;DHT22;39709;53.334;6.534;2023-02-12T11:36:52;8.30;97.80
53802;DHT22;39709;53.334;6.534;2023-02-12T11:39:35;8.20;89.70
53802;DHT22;39709;53.334;6.534;2023-02-12T11:42:17;8.40;91.10
53802;DHT22;39709;53.334;6.534;2023-02-12T11:44:53;8.50;85.70
53802;DHT22;39709;53.334;6.534;2023-02-12T11:47:24;8.40;73.80
53802;DHT22;39709;53.334;6.534;2023-02-12T11:52:39;8.20;59.90
53802;DHT22;39709;53.334;6.534;2023-02-12T11:55:24;8.40;57.70
53802;DHT22;39709;53.334;6.534;2023-02-12T11:57:54;8.60;52.10
53802;DHT22;39709;53.334;6.534;2023-02-12T12:00:35;9.30;54.00
53802;DHT22;39709;53.334;6.534;2023-02-12T12:06:07;9.00;2.70
53802;DHT22;39709;53.334;6.534;2023-02-12T12:11:24;9.20;1.00
53802;DHT22;39709;53.334;6.534;2023-02-12T12:13:56;9.20;1.00
53802;DHT22;39709;53.334;6.534;2023-02-12T12:17:09;9.00;1.00
53802;DHT22;39709;53.334;6.534;2023-02-12T12:20:16;9.10;1.00
53802;DHT22;39709;53.334;6.534;2023-02-12T12:25:33;9.50;1.00
53802;DHT22;39709;53.334;6.534;2023-02-12T12:28:29;9.70;1.00
53802;DHT22;39709;53.334;6.534;2023-02-12T12:33:45;9.60;1.00
53802;DHT22;39709;53.334;6.534;2023-02-12T12:58:04;9.30;1.00
53802;DHT22;39709;53.334;6.534;2023-02-12T13:09:01;9.20;1.00
53802;DHT22;39709;53.334;6.534;2023-02-12T13:17:08;9.20;1.00
53802;DHT22;39709;53.334;6.534;2023-02-12T13:19:46;9.00;1.00
53802;DHT22;39709;53.334;6.534;2023-02-12T13:25:20;8.90;1.00
53802;DHT22;39709;53.334;6.534;2023-02-12T13:27:47;8.70;1.00
53802;DHT22;39709;53.334;6.534;2023-02-12T13:35:28;8.90;1.00
53802;DHT22;39709;53.334;6.534;2023-02-12T13:37:55;8.80;1.00
53802;DHT22;39709;53.334;6.534;2023-02-12T13:40:22;8.70;1.00
53802;DHT22;39709;53.334;6.534;2023-02-12T13:43:10;8.80;1.00
53802;DHT22;39709;53.334;6.534;2023-02-12T13:51:42;8.90;1.00
53802;DHT22;39709;53.334;6.534;2023-02-12T13:54:27;9.00;1.00
53802;DHT22;39709;53.334;6.534;2023-02-12T13:57:00;9.00;1.00
53802;DHT22;39709;53.334;6.534;2023-02-12T14:04:45;8.90;1.00
53802;DHT22;39709;53.334;6.534;2023-02-12T14:07:15;8.80;1.00
53802;DHT22;39709;53.334;6.534;2023-02-12T14:14:50;9.00;1.00
53802;DHT22;39709;53.334;6.534;2023-02-12T14:20:30;8.80;1.00
53802;DHT22;39709;53.334;6.534;2023-02-12T14:22:57;8.80;1.00
53802;DHT22;39709;53.334;6.534;2023-02-12T14:27:50;8.90;1.00
53802;DHT22;39709;53.334;6.534;2023-02-12T14:30:30;8.80;1.00
53802;DHT22;39709;53.334;6.534;2023-02-12T14:32:59;8.80;1.00
53802;DHT22;39709;53.334;6.534;2023-02-12T14:35:39;8.70;1.00
53802;DHT22;39709;53.334;6.534;2023-02-12T14:48:54;8.50;1.00
53802;DHT22;39709;53.334;6.534;2023-02-12T14:51:41;8.60;1.00
53802;DHT22;39709;53.334;6.534;2023-02-12T14:56:51;8.60;1.00
53802;DHT22;39709;53.334;6.534;2023-02-12T14:59:22;8.60;1.00
53802;DHT22;39709;53.334;6.534;2023-02-12T15:01:49;8.20;1.00
53802;DHT22;39709;53.334;6.534;2023-02-12T15:04:27;8.20;1.00
53802;DHT22;39709;53.334;6.534;2023-02-12T15:07:15;8.40;1.00
53802;DHT22;39709;53.334;6.534;2023-02-12T15:09:58;8.50;1.00
53802;DHT22;39709;53.334;6.534;2023-02-12T15:12:34;8.40;1.00
53802;DHT22;39709;53.334;6.534;2023-02-12T15:17:33;8.20;1.00
53802;DHT22;39709;53.334;6.534;2023-02-12T15:20:23;8.50;1.00
53802;DHT22;39709;53.334;6.534;2023-02-12T15:22:49;8.50;1.00
53802;DHT22;39709;53.334;6.534;2023-02-12T15:27:45;8.20;1.00
53802;DHT22;39709;53.334;6.534;2023-02-12T15:30:16;8.30;1.00
53802;DHT22;39709;53.334;6.534;2023-02-12T15:32:43;8.50;1.00
53802;DHT22;39709;53.334;6.534;2023-02-12T15:35:38;8.10;1.00
53802;DHT22;39709;53.334;6.534;2023-02-12T15:38:08;8.30;1.00
53802;DHT22;39709;53.334;6.534;2023-02-12T15:40:55;8.20;1.00
53802;DHT22;39709;53.334;6.534;2023-02-12T15:43:26;8.40;1.00
53802;DHT22;39709;53.334;6.534;2023-02-12T15:45:52;8.10;1.00
53802;DHT22;39709;53.334;6.534;2023-02-12T15:48:20;8.30;1.00
53802;DHT22;39709;53.334;6.534;2023-02-12T15:53:23;8.20;1.00
53802;DHT22;39709;53.334;6.534;2023-02-12T15:55:51;8.20;1.00
53802;DHT22;39709;53.334;6.534;2023-02-12T16:01:06;7.90;1.00
53802;DHT22;39709;53.334;6.534;2023-02-12T16:03:36;8.10;1.00
53802;DHT22;39709;53.334;6.534;2023-02-12T16:06:11;8.20;1.00
53802;DHT22;39709;53.334;6.534;2023-02-12T16:08:40;8.20;1.00
53802;DHT22;39709;53.334;6.534;2023-02-12T16:11:07;7.80;1.00
53802;DHT22;39709;53.334;6.534;2023-02-12T16:18:37;7.80;1.00
53802;DHT22;39709;53.334;6.534;2023-02-12T16:21:15;7.70;1.00
53802;DHT22;39709;53.334;6.534;2023-02-12T16:23:43;8.00;1.00
53802;DHT22;39709;53.334;6.534;2023-02-12T16:26:16;7.70;1.00
53802;DHT22;39709;53.334;6.534;2023-02-12T16:28:45;7.70;1.00
53802;DHT22;39709;53.334;6.534;2023-02-12T16:31:13;7.70;1.00
53802;DHT22;39709;53.334;6.534;2023-02-12T16:33:41;7.90;1.00
53802;DHT22;39709;53.334;6.534;2023-02-12T16:38:56;7.90;1.00
53802;DHT22;39709;53.334;6.534;2023-02-12T16:41:54;7.70;1.00
53802;DHT22;39709;53.334;6.534;2023-02-12T16:44:24;7.90;1.00
53802;DHT22;39709;53.334;6.534;2023-02-12T16:46:54;8.00;1.00
53802;DHT22;39709;53.334;6.534;2023-02-12T16:49:22;7.90;1.00
53802;DHT22;39709;53.334;6.534;2023-02-12T16:51:49;7.90;1.00
53802;DHT22;39709;53.334;6.534;2023-02-12T16:54:30;7.90;1.00
53802;DHT22;39709;53.334;6.534;2023-02-12T16:56:56;7.90;1.00
53802;DHT22;39709;53.334;6.534;2023-02-12T16:59:22;7.50;1.00
53802;DHT22;39709;53.334;6.534;2023-02-12T17:02:09;7.70;1.00
53802;DHT22;39709;53.334;6.534;2023-02-12T17:04:35;7.90;1.00
53802;DHT22;39709;53.334;6.534;2023-02-12T17:07:01;7.50;1.00
53802;DHT22;39709;53.334;6.534;2023-02-12T17:09:27;7.80;1.00
53802;DHT22;39709;53.334;6.534;2023-02-12T17:11:55;7.80;1.00
53802;DHT22;39709;53.334;6.534;2023-02-12T17:14:22;7.50;1.00
53802;DHT22;39709;53.334;6.534;2023-02-12T17:16:47;7.70;1.00
53802;DHT22;39709;53.334;6.534;2023-02-12T17:19:14;7.80;1.00
53802;DHT22;39709;53.334;6.534;2023-02-12T17:21:42;7.70;1.00
53802;DHT22;39709;53.334;6.534;2023-02-12T17:24:21;7.80;1.00
53802;DHT22;39709;53.334;6.534;2023-02-12T17:26:49;7.80;3.90
53802;DHT22;39709;53.334;6.534;2023-02-12T17:29:16;7.40;1.00
53802;DHT22;39709;53.334;6.534;2023-02-12T17:31:42;7.80;1.00
53802;DHT22;39709;53.334;6.534;2023-02-12T17:34:08;7.60;1.00
53802;DHT22;39709;53.334;6.534;2023-02-12T17:36:34;7.40;1.00
53802;DHT22;39709;53.334;6.534;2023-02-12T17:39:01;7.70;1.00
53802;DHT22;39709;53.334;6.534;2023-02-12T17:41:27;7.60;1.00
53802;DHT22;39709;53.334;6.534;2023-02-12T17:43:53;7.80;1.00
53802;DHT22;39709;53.334;6.534;2023-02-12T17:46:21;7.70;1.00
53802;DHT22;39709;53.334;6.534;2023-02-12T17:48:47;7.70;1.00
53802;DHT22;39709;53.334;6.534;2023-02-12T17:51:13;7.40;1.00
53802;DHT22;39709;53.334;6.534;2023-02-12T17:53:39;7.40;1.00
53802;DHT22;39709;53.334;6.534;2023-02-12T17:56:12;7.60;1.00
53802;DHT22;39709;53.334;6.534;2023-02-12T17:58:40;7.70;1.00
53802;DHT22;39709;53.334;6.534;2023-02-12T18:01:09;7.30;1.00
53802;DHT22;39709;53.334;6.534;2023-02-12T18:03:35;7.60;1.00
53802;DHT22;39709;53.334;6.534;2023-02-12T18:06:01;7.30;1.00
53802;DHT22;39709;53.334;6.534;2023-02-12T18:08:27;7.30;1.00
53802;DHT22;39709;53.334;6.534;2023-02-12T18:10:53;7.30;1.00
53802;DHT22;39709;53.334;6.534;2023-02-12T18:13:19;7.70;1.00
53802;DHT22;39709;53.334;6.534;2023-02-12T18:15:45;7.70;1.00
53802;DHT22;39709;53.334;6.534;2023-02-12T18:18:10;7.70;1.00
53802;DHT22;39709;53.334;6.534;2023-02-12T18:20:39;7.50;1.00
53802;DHT22;39709;53.334;6.534;2023-02-12T18:23:05;7.40;1.00
53802;DHT22;39709;53.334;6.534;2023-02-12T18:25:33;7.20;1.00
53802;DHT22;39709;53.334;6.534;2023-02-12T18:27:59;7.40;1.00
53802;DHT22;39709;53.334;6.534;2023-02-12T18:30:26;7.20;1.00
53802;DHT22;39709;53.334;6.534;2023-02-12T18:32:52;7.50;1.00
53802;DHT22;39709;53.334;6.534;2023-02-12T18:35:18;7.50;1.00
53802;DHT22;39709;53.334;6.534;2023-02-12T18:37:44;7.40;1.00
53802;DHT22;39709;53.334;6.534;2023-02-12T18:40:12;7.30;1.00
53802;DHT22;39709;53.334;6.534;2023-02-12T18:42:38;7.50;1.00
53802;DHT22;39709;53.334;6.534;2023-02-12T18:45:04;7.10;1.00
53802;DHT22;39709;53.334;6.534;2023-02-12T18:47:30;7.20;1.00
53802;DHT22;39709;53.334;6.534;2023-02-12T18:49:56;7.10;1.00
53802;DHT22;39709;53.334;6.534;2023-02-12T18:52:22;7.10;1.00
53802;DHT22;39709;53.334;6.534;2023-02-12T18:54:48;7.40;1.00
53802;DHT22;39709;53.334;6.534;2023-02-12T18:57:14;7.40;1.00
53802;DHT22;39709;53.334;6.534;2023-02-12T18:59:40;7.60;2.20
53802;DHT22;39709;53.334;6.534;2023-02-12T19:02:06;7.50;7.90
53802;DHT22;39709;53.334;6.534;2023-02-12T19:04:32;7.30;9.70
53802;DHT22;39709;53.334;6.534;2023-02-12T19:06:59;7.10;15.90
53802;DHT22;39709;53.334;6.534;2023-02-12T19:09:25;7.20;24.60
53802;DHT22;39709;53.334;6.534;2023-02-12T19:11:54;7.00;24.50
53802;DHT22;39709;53.334;6.534;2023-02-12T19:14:22;7.50;24.40
53802;DHT22;39709;53.334;6.534;2023-02-12T19:16:48;7.20;25.80